Main page
Satellite images 10-day forecastsClimateMarine weather Cyclones Lightning AirportsFAQ Newsletter About
Weather : Europe Africa North America South America Asia Australia-Oceania Others
Languages Contact

Alpine, Texas, United States

Alpine-Casparis Municipal Airport

latitude: 30-23-03N, longitude: 103-41-00W, elevation: 1376 m


METAR: KE38 012055Z AUTO 02011G18KT 10SM SCT028 SCT033 SCT039 12/05 A3015 RMK AO2 T01230048
TAF: missing

Time: 15:08 (21:08 UTC)

Current weather observation

The report was made 13 minutes ago, at 20:55 UTC
Wind 11 kt from the North/Northeast with gusts up to 18 kt
Temperature 12°C
Humidity 62%
Pressure 1021 hPa
Visibility: 16.1 km
Scattered clouds at a height of 2800 ft
Scattered clouds at a height of 3300 ft
Scattered clouds at a height of 3900 ft

Change units
The information on this site is subject to a disclaimer
Weather : Europe Africa North America South America Asia Australia-Oceania Others
Satellite images 10-day forecastsClimateMarine weather Cyclones Lightning AirportsFAQ Languages Contact Newsletter About